sensor_id;sensor_type;location;lat;lon;timestamp;P1;durP1;ratioP1;P2;durP2;ratioP2
15216;SDS011;7711;46.634;14.318;2022-07-29T00:01:34;5.30;;;4.80;;
15216;SDS011;7711;46.634;14.318;2022-07-29T00:04:03;5.70;;;4.93;;
15216;SDS011;7711;46.634;14.318;2022-07-29T00:06:31;4.90;;;4.50;;
15216;SDS011;7711;46.634;14.318;2022-07-29T00:09:01;9.20;;;4.90;;
15216;SDS011;7711;46.634;14.318;2022-07-29T00:11:29;5.50;;;4.60;;
15216;SDS011;7711;46.634;14.318;2022-07-29T00:14:01;6.63;;;5.00;;
15216;SDS011;7711;46.634;14.318;2022-07-29T00:16:40;5.03;;;4.30;;
15216;SDS011;7711;46.634;14.318;2022-07-29T00:19:07;8.20;;;5.07;;
15216;SDS011;7711;46.634;14.318;2022-07-29T00:21:43;5.85;;;4.45;;
15216;SDS011;7711;46.634;14.318;2022-07-29T00:24:13;6.57;;;4.97;;
15216;SDS011;7711;46.634;14.318;2022-07-29T00:26:40;5.82;;;5.10;;
15216;SDS011;7711;46.634;14.318;2022-07-29T00:29:13;7.32;;;5.47;;
15216;SDS011;7711;46.634;14.318;2022-07-29T00:31:40;5.85;;;4.75;;
15216;SDS011;7711;46.634;14.318;2022-07-29T00:34:09;5.32;;;4.82;;
15216;SDS011;7711;46.634;14.318;2022-07-29T00:36:58;5.40;;;4.90;;
15216;SDS011;7711;46.634;14.318;2022-07-29T00:39:26;5.47;;;4.97;;
15216;SDS011;7711;46.634;14.318;2022-07-29T00:41:53;4.50;;;4.20;;
15216;SDS011;7711;46.634;14.318;2022-07-29T00:44:22;5.20;;;4.70;;
15216;SDS011;7711;46.634;14.318;2022-07-29T00:46:52;6.93;;;4.90;;
15216;SDS011;7711;46.634;14.318;2022-07-29T00:49:19;5.70;;;5.15;;
15216;SDS011;7711;46.634;14.318;2022-07-29T00:51:52;6.60;;;4.97;;
15216;SDS011;7711;46.634;14.318;2022-07-29T00:54:22;5.65;;;4.88;;
15216;SDS011;7711;46.634;14.318;2022-07-29T00:56:51;5.28;;;4.63;;
15216;SDS011;7711;46.634;14.318;2022-07-29T00:59:23;5.53;;;4.80;;
15216;SDS011;7711;46.634;14.318;2022-07-29T01:01:53;5.68;;;5.07;;
15216;SDS011;7711;46.634;14.318;2022-07-29T01:04:21;5.38;;;4.95;;
15216;SDS011;7711;46.634;14.318;2022-07-29T01:06:52;5.72;;;5.13;;
15216;SDS011;7711;46.634;14.318;2022-07-29T01:09:20;4.97;;;4.47;;
15216;SDS011;7711;46.634;14.318;2022-07-29T01:11:50;5.82;;;5.22;;
15216;SDS011;7711;46.634;14.318;2022-07-29T01:14:17;5.90;;;4.78;;
15216;SDS011;7711;46.634;14.318;2022-07-29T01:16:54;6.35;;;5.32;;
15216;SDS011;7711;46.634;14.318;2022-07-29T01:19:39;5.53;;;5.03;;
15216;SDS011;7711;46.634;14.318;2022-07-29T01:22:27;5.72;;;5.20;;
15216;SDS011;7711;46.634;14.318;2022-07-29T01:25:05;6.35;;;5.68;;
15216;SDS011;7711;46.634;14.318;2022-07-29T01:30:50;5.38;;;4.88;;
15216;SDS011;7711;46.634;14.318;2022-07-29T01:33:20;5.93;;;4.88;;
15216;SDS011;7711;46.634;14.318;2022-07-29T01:36:10;5.20;;;4.68;;
15216;SDS011;7711;46.634;14.318;2022-07-29T01:38:42;7.60;;;5.30;;
15216;SDS011;7711;46.634;14.318;2022-07-29T01:41:20;6.45;;;5.85;;
15216;SDS011;7711;46.634;14.318;2022-07-29T01:43:49;9.30;;;5.75;;
15216;SDS011;7711;46.634;14.318;2022-07-29T01:46:27;8.75;;;5.68;;
15216;SDS011;7711;46.634;14.318;2022-07-29T01:48:59;6.00;;;5.40;;
15216;SDS011;7711;46.634;14.318;2022-07-29T01:51:33;6.28;;;5.68;;
15216;SDS011;7711;46.634;14.318;2022-07-29T01:54:10;6.20;;;5.60;;
15216;SDS011;7711;46.634;14.318;2022-07-29T01:56:47;5.53;;;5.03;;
15216;SDS011;7711;46.634;14.318;2022-07-29T01:59:19;6.93;;;5.68;;
15216;SDS011;7711;46.634;14.318;2022-07-29T02:01:52;8.85;;;5.85;;
15216;SDS011;7711;46.634;14.318;2022-07-29T02:04:24;5.70;;;5.20;;
15216;SDS011;7711;46.634;14.318;2022-07-29T02:06:53;5.85;;;5.28;;
15216;SDS011;7711;46.634;14.318;2022-07-29T02:09:31;5.60;;;5.10;;
15216;SDS011;7711;46.634;14.318;2022-07-29T02:12:04;6.78;;;5.75;;
15216;SDS011;7711;46.634;14.318;2022-07-29T02:14:43;5.88;;;5.38;;
15216;SDS011;7711;46.634;14.318;2022-07-29T02:17:23;5.45;;;4.95;;
15216;SDS011;7711;46.634;14.318;2022-07-29T02:19:54;6.45;;;5.85;;
15216;SDS011;7711;46.634;14.318;2022-07-29T02:22:25;6.45;;;5.60;;
15216;SDS011;7711;46.634;14.318;2022-07-29T02:24:57;8.02;;;5.93;;
15216;SDS011;7711;46.634;14.318;2022-07-29T02:27:28;6.30;;;5.80;;
15216;SDS011;7711;46.634;14.318;2022-07-29T02:29:57;6.85;;;5.55;;
15216;SDS011;7711;46.634;14.318;2022-07-29T02:32:28;7.78;;;5.85;;
15216;SDS011;7711;46.634;14.318;2022-07-29T02:35:02;6.93;;;6.07;;
15216;SDS011;7711;46.634;14.318;2022-07-29T02:37:32;6.78;;;6.05;;
15216;SDS011;7711;46.634;14.318;2022-07-29T02:40:03;6.88;;;6.18;;
15216;SDS011;7711;46.634;14.318;2022-07-29T02:42:34;6.95;;;6.25;;
15216;SDS011;7711;46.634;14.318;2022-07-29T02:45:04;6.53;;;5.93;;
15216;SDS011;7711;46.634;14.318;2022-07-29T02:47:39;7.97;;;6.10;;
15216;SDS011;7711;46.634;14.318;2022-07-29T02:50:12;7.88;;;6.60;;
15216;SDS011;7711;46.634;14.318;2022-07-29T02:52:47;7.55;;;6.10;;
15216;SDS011;7711;46.634;14.318;2022-07-29T02:55:22;6.72;;;5.80;;
15216;SDS011;7711;46.634;14.318;2022-07-29T02:57:57;6.68;;;6.07;;
15216;SDS011;7711;46.634;14.318;2022-07-29T03:00:28;8.98;;;6.50;;
15216;SDS011;7711;46.634;14.318;2022-07-29T03:02:59;8.18;;;6.13;;
15216;SDS011;7711;46.634;14.318;2022-07-29T03:05:31;7.53;;;6.70;;
15216;SDS011;7711;46.634;14.318;2022-07-29T03:08:00;8.18;;;6.18;;
15216;SDS011;7711;46.634;14.318;2022-07-29T03:10:31;7.32;;;6.20;;
15216;SDS011;7711;46.634;14.318;2022-07-29T03:13:00;6.88;;;5.90;;
15216;SDS011;7711;46.634;14.318;2022-07-29T03:15:28;7.15;;;5.80;;
15216;SDS011;7711;46.634;14.318;2022-07-29T03:18:03;7.45;;;6.00;;
15216;SDS011;7711;46.634;14.318;2022-07-29T03:20:31;9.55;;;6.00;;
15216;SDS011;7711;46.634;14.318;2022-07-29T03:23:02;8.75;;;6.15;;
15216;SDS011;7711;46.634;14.318;2022-07-29T03:25:29;9.40;;;6.43;;
15216;SDS011;7711;46.634;14.318;2022-07-29T03:27:58;7.45;;;6.53;;
15216;SDS011;7711;46.634;14.318;2022-07-29T03:30:28;6.80;;;6.10;;
15216;SDS011;7711;46.634;14.318;2022-07-29T03:32:57;8.63;;;6.63;;
15216;SDS011;7711;46.634;14.318;2022-07-29T03:35:26;7.10;;;6.35;;
15216;SDS011;7711;46.634;14.318;2022-07-29T03:37:55;6.88;;;6.28;;
15216;SDS011;7711;46.634;14.318;2022-07-29T03:40:24;6.82;;;6.13;;
15216;SDS011;7711;46.634;14.318;2022-07-29T03:42:58;7.53;;;6.40;;
15216;SDS011;7711;46.634;14.318;2022-07-29T03:45:28;6.43;;;5.82;;
15216;SDS011;7711;46.634;14.318;2022-07-29T03:47:59;7.60;;;6.40;;
15216;SDS011;7711;46.634;14.318;2022-07-29T03:50:33;7.28;;;6.25;;
15216;SDS011;7711;46.634;14.318;2022-07-29T03:53:05;6.85;;;6.15;;
15216;SDS011;7711;46.634;14.318;2022-07-29T03:55:36;10.32;;;6.78;;
15216;SDS011;7711;46.634;14.318;2022-07-29T03:58:09;9.60;;;6.30;;
15216;SDS011;7711;46.634;14.318;2022-07-29T04:00:41;7.43;;;6.65;;
15216;SDS011;7711;46.634;14.318;2022-07-29T04:03:12;9.13;;;6.53;;
15216;SDS011;7711;46.634;14.318;2022-07-29T04:05:43;7.63;;;6.28;;
15216;SDS011;7711;46.634;14.318;2022-07-29T04:08:16;7.13;;;6.30;;
15216;SDS011;7711;46.634;14.318;2022-07-29T04:10:46;7.88;;;6.47;;
15216;SDS011;7711;46.634;14.318;2022-07-29T04:13:13;7.05;;;6.00;;
15216;SDS011;7711;46.634;14.318;2022-07-29T04:15:42;6.85;;;5.70;;
15216;SDS011;7711;46.634;14.318;2022-07-29T04:18:09;7.82;;;6.65;;
15216;SDS011;7711;46.634;14.318;2022-07-29T04:20:36;6.60;;;5.90;;
15216;SDS011;7711;46.634;14.318;2022-07-29T04:23:07;7.25;;;5.72;;
15216;SDS011;7711;46.634;14.318;2022-07-29T04:25:36;6.00;;;5.30;;
15216;SDS011;7711;46.634;14.318;2022-07-29T04:28:07;6.50;;;5.82;;
15216;SDS011;7711;46.634;14.318;2022-07-29T04:30:35;8.60;;;6.05;;
15216;SDS011;7711;46.634;14.318;2022-07-29T04:33:05;6.65;;;5.88;;
15216;SDS011;7711;46.634;14.318;2022-07-29T04:35:34;7.70;;;6.25;;
15216;SDS011;7711;46.634;14.318;2022-07-29T04:38:04;6.45;;;5.75;;
15216;SDS011;7711;46.634;14.318;2022-07-29T04:40:32;8.20;;;5.93;;
15216;SDS011;7711;46.634;14.318;2022-07-29T04:43:02;7.28;;;6.00;;
15216;SDS011;7711;46.634;14.318;2022-07-29T04:45:29;7.00;;;6.30;;
15216;SDS011;7711;46.634;14.318;2022-07-29T04:47:59;6.15;;;5.55;;
15216;SDS011;7711;46.634;14.318;2022-07-29T04:50:28;10.25;;;5.93;;
15216;SDS011;7711;46.634;14.318;2022-07-29T04:53:00;6.82;;;6.10;;
15216;SDS011;7711;46.634;14.318;2022-07-29T04:55:29;9.27;;;6.35;;
15216;SDS011;7711;46.634;14.318;2022-07-29T04:57:56;6.70;;;5.82;;
15216;SDS011;7711;46.634;14.318;2022-07-29T05:00:24;7.07;;;5.97;;
15216;SDS011;7711;46.634;14.318;2022-07-29T05:02:53;8.43;;;6.40;;
15216;SDS011;7711;46.634;14.318;2022-07-29T05:05:21;8.27;;;5.97;;
15216;SDS011;7711;46.634;14.318;2022-07-29T05:07:53;6.70;;;5.88;;
15216;SDS011;7711;46.634;14.318;2022-07-29T05:10:21;6.68;;;6.00;;
15216;SDS011;7711;46.634;14.318;2022-07-29T05:12:50;7.20;;;5.90;;
15216;SDS011;7711;46.634;14.318;2022-07-29T05:15:17;8.40;;;6.15;;
15216;SDS011;7711;46.634;14.318;2022-07-29T05:17:47;7.70;;;5.78;;
15216;SDS011;7711;46.634;14.318;2022-07-29T05:20:15;6.30;;;5.70;;
15216;SDS011;7711;46.634;14.318;2022-07-29T05:22:43;7.22;;;5.30;;
15216;SDS011;7711;46.634;14.318;2022-07-29T05:25:14;6.72;;;6.03;;
15216;SDS011;7711;46.634;14.318;2022-07-29T05:27:41;6.90;;;6.28;;
15216;SDS011;7711;46.634;14.318;2022-07-29T05:30:12;5.82;;;5.32;;
15216;SDS011;7711;46.634;14.318;2022-07-29T05:32:40;7.28;;;5.82;;
15216;SDS011;7711;46.634;14.318;2022-07-29T05:35:07;8.05;;;5.80;;
15216;SDS011;7711;46.634;14.318;2022-07-29T05:37:35;6.82;;;6.13;;
15216;SDS011;7711;46.634;14.318;2022-07-29T05:40:04;6.10;;;5.50;;
15216;SDS011;7711;46.634;14.318;2022-07-29T05:42:34;6.40;;;5.72;;
15216;SDS011;7711;46.634;14.318;2022-07-29T05:45:01;8.88;;;6.32;;
15216;SDS011;7711;46.634;14.318;2022-07-29T05:47:30;6.40;;;5.80;;
15216;SDS011;7711;46.634;14.318;2022-07-29T05:50:02;7.03;;;5.60;;
15216;SDS011;7711;46.634;14.318;2022-07-29T05:52:32;7.18;;;5.43;;
15216;SDS011;7711;46.634;14.318;2022-07-29T05:55:01;5.90;;;5.30;;
15216;SDS011;7711;46.634;14.318;2022-07-29T05:57:30;6.57;;;5.57;;
15216;SDS011;7711;46.634;14.318;2022-07-29T06:00:00;5.70;;;5.15;;
15216;SDS011;7711;46.634;14.318;2022-07-29T06:02:33;6.50;;;5.88;;
15216;SDS011;7711;46.634;14.318;2022-07-29T06:05:00;6.20;;;5.60;;
15216;SDS011;7711;46.634;14.318;2022-07-29T06:07:27;6.00;;;5.40;;
15216;SDS011;7711;46.634;14.318;2022-07-29T06:09:57;6.38;;;5.47;;
15216;SDS011;7711;46.634;14.318;2022-07-29T06:12:24;5.85;;;5.30;;
15216;SDS011;7711;46.634;14.318;2022-07-29T06:14:51;5.68;;;5.07;;
15216;SDS011;7711;46.634;14.318;2022-07-29T06:17:23;7.18;;;5.05;;
15216;SDS011;7711;46.634;14.318;2022-07-29T06:19:52;6.13;;;5.43;;
15216;SDS011;7711;46.634;14.318;2022-07-29T06:22:19;7.07;;;5.53;;
15216;SDS011;7711;46.634;14.318;2022-07-29T06:24:53;6.10;;;5.18;;
15216;SDS011;7711;46.634;14.318;2022-07-29T06:27:20;6.07;;;5.47;;
15216;SDS011;7711;46.634;14.318;2022-07-29T06:29:48;5.93;;;5.43;;
15216;SDS011;7711;46.634;14.318;2022-07-29T06:32:18;6.53;;;5.25;;
15216;SDS011;7711;46.634;14.318;2022-07-29T06:34:50;6.63;;;5.72;;
15216;SDS011;7711;46.634;14.318;2022-07-29T06:37:23;5.88;;;5.30;;
15216;SDS011;7711;46.634;14.318;2022-07-29T06:39:53;6.50;;;5.50;;
15216;SDS011;7711;46.634;14.318;2022-07-29T06:42:34;7.65;;;5.07;;
15216;SDS011;7711;46.634;14.318;2022-07-29T06:45:03;8.07;;;5.43;;
15216;SDS011;7711;46.634;14.318;2022-07-29T06:47:32;5.35;;;4.90;;
15216;SDS011;7711;46.634;14.318;2022-07-29T06:50:02;5.85;;;5.25;;
15216;SDS011;7711;46.634;14.318;2022-07-29T06:52:31;5.95;;;5.45;;
15216;SDS011;7711;46.634;14.318;2022-07-29T06:55:00;5.47;;;4.97;;
15216;SDS011;7711;46.634;14.318;2022-07-29T06:57:29;5.32;;;4.85;;
15216;SDS011;7711;46.634;14.318;2022-07-29T06:59:58;5.63;;;5.13;;
15216;SDS011;7711;46.634;14.318;2022-07-29T07:02:31;7.05;;;4.95;;
15216;SDS011;7711;46.634;14.318;2022-07-29T07:04:59;5.70;;;4.60;;
15216;SDS011;7711;46.634;14.318;2022-07-29T07:07:32;6.65;;;4.63;;
15216;SDS011;7711;46.634;14.318;2022-07-29T07:10:01;7.43;;;4.30;;
15216;SDS011;7711;46.634;14.318;2022-07-29T07:12:31;6.13;;;4.82;;
15216;SDS011;7711;46.634;14.318;2022-07-29T07:15:01;5.40;;;4.90;;
15216;SDS011;7711;46.634;14.318;2022-07-29T07:17:30;6.68;;;4.30;;
15216;SDS011;7711;46.634;14.318;2022-07-29T07:19:59;7.25;;;5.05;;
15216;SDS011;7711;46.634;14.318;2022-07-29T07:22:27;6.15;;;4.88;;
15216;SDS011;7711;46.634;14.318;2022-07-29T07:24:56;5.63;;;5.07;;
15216;SDS011;7711;46.634;14.318;2022-07-29T07:27:25;5.18;;;4.60;;
15216;SDS011;7711;46.634;14.318;2022-07-29T07:29:52;7.40;;;4.88;;
15216;SDS011;7711;46.634;14.318;2022-07-29T07:32:26;4.63;;;4.20;;
15216;SDS011;7711;46.634;14.318;2022-07-29T07:34:59;4.82;;;4.43;;
15216;SDS011;7711;46.634;14.318;2022-07-29T07:37:27;5.20;;;4.70;;
15216;SDS011;7711;46.634;14.318;2022-07-29T07:39:59;5.70;;;5.10;;
15216;SDS011;7711;46.634;14.318;2022-07-29T07:42:27;5.78;;;4.30;;
15216;SDS011;7711;46.634;14.318;2022-07-29T07:44:56;5.95;;;4.78;;
15216;SDS011;7711;46.634;14.318;2022-07-29T07:47:23;5.28;;;4.70;;
15216;SDS011;7711;46.634;14.318;2022-07-29T07:49:52;5.63;;;5.03;;
15216;SDS011;7711;46.634;14.318;2022-07-29T07:52:20;7.90;;;4.63;;
15216;SDS011;7711;46.634;14.318;2022-07-29T07:54:51;6.50;;;4.82;;
15216;SDS011;7711;46.634;14.318;2022-07-29T07:57:20;4.97;;;4.43;;
15216;SDS011;7711;46.634;14.318;2022-07-29T07:59:52;5.07;;;4.57;;
15216;SDS011;7711;46.634;14.318;2022-07-29T08:02:21;5.80;;;4.82;;
15216;SDS011;7711;46.634;14.318;2022-07-29T08:04:48;7.20;;;4.65;;
15216;SDS011;7711;46.634;14.318;2022-07-29T08:07:15;5.22;;;4.72;;
15216;SDS011;7711;46.634;14.318;2022-07-29T08:09:45;5.07;;;4.68;;
15216;SDS011;7711;46.634;14.318;2022-07-29T08:12:16;5.80;;;4.72;;
15216;SDS011;7711;46.634;14.318;2022-07-29T08:14:43;6.75;;;4.88;;
15216;SDS011;7711;46.634;14.318;2022-07-29T08:17:12;5.50;;;5.00;;
15216;SDS011;7711;46.634;14.318;2022-07-29T08:19:39;5.50;;;5.00;;
15216;SDS011;7711;46.634;14.318;2022-07-29T08:22:08;5.25;;;4.75;;
15216;SDS011;7711;46.634;14.318;2022-07-29T08:24:37;5.50;;;5.00;;
15216;SDS011;7711;46.634;14.318;2022-07-29T08:27:20;6.80;;;4.70;;
15216;SDS011;7711;46.634;14.318;2022-07-29T08:29:49;4.68;;;4.28;;
15216;SDS011;7711;46.634;14.318;2022-07-29T08:32:25;6.28;;;4.30;;
15216;SDS011;7711;46.634;14.318;2022-07-29T08:34:54;5.15;;;4.75;;
15216;SDS011;7711;46.634;14.318;2022-07-29T08:37:25;4.90;;;4.40;;
15216;SDS011;7711;46.634;14.318;2022-07-29T08:39:55;5.10;;;4.70;;
15216;SDS011;7711;46.634;14.318;2022-07-29T08:42:24;5.43;;;4.93;;
15216;SDS011;7711;46.634;14.318;2022-07-29T08:44:54;5.82;;;4.75;;
15216;SDS011;7711;46.634;14.318;2022-07-29T08:47:22;5.75;;;5.25;;
15216;SDS011;7711;46.634;14.318;2022-07-29T08:49:52;5.38;;;4.88;;
15216;SDS011;7711;46.634;14.318;2022-07-29T08:52:22;7.40;;;4.75;;
15216;SDS011;7711;46.634;14.318;2022-07-29T08:54:52;5.78;;;5.18;;
15216;SDS011;7711;46.634;14.318;2022-07-29T08:57:24;6.28;;;4.80;;
15216;SDS011;7711;46.634;14.318;2022-07-29T08:59:55;5.57;;;5.07;;
15216;SDS011;7711;46.634;14.318;2022-07-29T09:02:25;6.28;;;5.05;;
15216;SDS011;7711;46.634;14.318;2022-07-29T09:04:57;6.63;;;5.10;;
15216;SDS011;7711;46.634;14.318;2022-07-29T09:07:26;5.18;;;4.78;;
15216;SDS011;7711;46.634;14.318;2022-07-29T09:09:57;5.30;;;4.90;;
15216;SDS011;7711;46.634;14.318;2022-07-29T09:12:26;7.28;;;4.90;;
15216;SDS011;7711;46.634;14.318;2022-07-29T09:14:56;6.85;;;5.30;;
15216;SDS011;7711;46.634;14.318;2022-07-29T09:17:40;5.80;;;5.18;;
15216;SDS011;7711;46.634;14.318;2022-07-29T09:20:09;5.30;;;4.78;;
15216;SDS011;7711;46.634;14.318;2022-07-29T09:22:38;6.72;;;5.25;;
15216;SDS011;7711;46.634;14.318;2022-07-29T09:25:05;5.05;;;4.57;;
15216;SDS011;7711;46.634;14.318;2022-07-29T09:27:40;5.78;;;4.80;;
15216;SDS011;7711;46.634;14.318;2022-07-29T09:30:17;6.53;;;4.80;;
15216;SDS011;7711;46.634;14.318;2022-07-29T09:32:53;8.27;;;4.63;;
15216;SDS011;7711;46.634;14.318;2022-07-29T09:35:24;6.65;;;4.93;;
15216;SDS011;7711;46.634;14.318;2022-07-29T09:37:52;5.07;;;4.57;;
15216;SDS011;7711;46.634;14.318;2022-07-29T09:40:26;5.63;;;4.90;;
15216;SDS011;7711;46.634;14.318;2022-07-29T09:42:57;5.88;;;4.75;;
15216;SDS011;7711;46.634;14.318;2022-07-29T09:45:35;5.40;;;4.90;;
15216;SDS011;7711;46.634;14.318;2022-07-29T09:48:12;7.72;;;4.93;;
15216;SDS011;7711;46.634;14.318;2022-07-29T09:50:42;5.97;;;4.70;;
15216;SDS011;7711;46.634;14.318;2022-07-29T09:53:10;4.72;;;4.32;;
15216;SDS011;7711;46.634;14.318;2022-07-29T09:55:47;5.15;;;4.28;;
15216;SDS011;7711;46.634;14.318;2022-07-29T09:58:17;5.07;;;4.03;;
15216;SDS011;7711;46.634;14.318;2022-07-29T10:00:49;7.38;;;4.72;;
15216;SDS011;7711;46.634;14.318;2022-07-29T10:03:17;5.10;;;4.70;;
15216;SDS011;7711;46.634;14.318;2022-07-29T10:05:48;5.47;;;4.97;;
15216;SDS011;7711;46.634;14.318;2022-07-29T10:08:33;4.93;;;4.43;;
15216;SDS011;7711;46.634;14.318;2022-07-29T10:11:11;4.75;;;4.25;;
15216;SDS011;7711;46.634;14.318;2022-07-29T10:13:41;5.30;;;4.10;;
15216;SDS011;7711;46.634;14.318;2022-07-29T10:16:11;5.07;;;4.57;;
15216;SDS011;7711;46.634;14.318;2022-07-29T10:18:39;4.63;;;4.22;;
15216;SDS011;7711;46.634;14.318;2022-07-29T10:21:11;5.00;;;4.60;;
15216;SDS011;7711;46.634;14.318;2022-07-29T10:23:41;5.07;;;4.68;;
15216;SDS011;7711;46.634;14.318;2022-07-29T10:26:11;5.15;;;4.68;;
15216;SDS011;7711;46.634;14.318;2022-07-29T10:28:41;7.95;;;4.65;;
15216;SDS011;7711;46.634;14.318;2022-07-29T10:31:11;5.20;;;4.70;;
15216;SDS011;7711;46.634;14.318;2022-07-29T10:33:52;5.80;;;4.57;;
15216;SDS011;7711;46.634;14.318;2022-07-29T10:36:32;5.25;;;4.75;;
15216;SDS011;7711;46.634;14.318;2022-07-29T10:39:19;4.93;;;4.53;;
15216;SDS011;7711;46.634;14.318;2022-07-29T10:42:05;5.25;;;4.72;;
15216;SDS011;7711;46.634;14.318;2022-07-29T10:44:41;5.40;;;4.57;;
15216;SDS011;7711;46.634;14.318;2022-07-29T10:47:20;5.07;;;4.68;;
15216;SDS011;7711;46.634;14.318;2022-07-29T10:49:55;4.80;;;4.40;;
15216;SDS011;7711;46.634;14.318;2022-07-29T10:52:25;7.40;;;4.47;;
15216;SDS011;7711;46.634;14.318;2022-07-29T10:55:34;4.72;;;4.32;;
15216;SDS011;7711;46.634;14.318;2022-07-29T10:58:13;6.68;;;4.75;;
15216;SDS011;7711;46.634;14.318;2022-07-29T11:00:43;5.85;;;4.88;;
15216;SDS011;7711;46.634;14.318;2022-07-29T11:06:14;5.63;;;5.13;;
15216;SDS011;7711;46.634;14.318;2022-07-29T11:08:46;5.55;;;4.78;;
15216;SDS011;7711;46.634;14.318;2022-07-29T11:11:47;5.70;;;4.70;;
15216;SDS011;7711;46.634;14.318;2022-07-29T11:14:16;5.38;;;4.88;;
15216;SDS011;7711;46.634;14.318;2022-07-29T11:17:01;5.60;;;4.95;;
15216;SDS011;7711;46.634;14.318;2022-07-29T11:19:31;5.07;;;4.60;;
15216;SDS011;7711;46.634;14.318;2022-07-29T11:22:01;5.40;;;4.90;;
15216;SDS011;7711;46.634;14.318;2022-07-29T11:24:33;5.10;;;4.70;;
15216;SDS011;7711;46.634;14.318;2022-07-29T11:27:11;6.05;;;4.72;;
15216;SDS011;7711;46.634;14.318;2022-07-29T11:29:47;6.25;;;5.03;;
15216;SDS011;7711;46.634;14.318;2022-07-29T11:32:18;6.78;;;4.47;;
15216;SDS011;7711;46.634;14.318;2022-07-29T11:34:47;8.07;;;5.38;;
15216;SDS011;7711;46.634;14.318;2022-07-29T11:37:21;5.30;;;4.80;;
15216;SDS011;7711;46.634;14.318;2022-07-29T11:40:12;5.00;;;4.60;;
15216;SDS011;7711;46.634;14.318;2022-07-29T11:42:45;5.63;;;4.93;;
15216;SDS011;7711;46.634;14.318;2022-07-29T11:45:16;5.85;;;4.60;;
15216;SDS011;7711;46.634;14.318;2022-07-29T11:47:50;5.28;;;4.80;;
15216;SDS011;7711;46.634;14.318;2022-07-29T11:50:26;4.90;;;4.50;;
15216;SDS011;7711;46.634;14.318;2022-07-29T11:52:55;5.07;;;4.68;;
15216;SDS011;7711;46.634;14.318;2022-07-29T11:55:24;5.25;;;4.40;;
15216;SDS011;7711;46.634;14.318;2022-07-29T11:57:52;5.55;;;5.05;;
15216;SDS011;7711;46.634;14.318;2022-07-29T12:00:21;6.07;;;5.10;;
15216;SDS011;7711;46.634;14.318;2022-07-29T12:02:51;5.45;;;4.95;;
15216;SDS011;7711;46.634;14.318;2022-07-29T12:05:19;5.45;;;4.95;;
15216;SDS011;7711;46.634;14.318;2022-07-29T12:08:03;4.88;;;4.47;;
15216;SDS011;7711;46.634;14.318;2022-07-29T12:10:32;5.47;;;4.97;;
15216;SDS011;7711;46.634;14.318;2022-07-29T12:12:59;7.30;;;4.63;;
15216;SDS011;7711;46.634;14.318;2022-07-29T12:15:26;5.45;;;4.80;;
15216;SDS011;7711;46.634;14.318;2022-07-29T12:17:55;5.35;;;4.82;;
15216;SDS011;7711;46.634;14.318;2022-07-29T12:20:23;6.50;;;4.82;;
15216;SDS011;7711;46.634;14.318;2022-07-29T12:22:51;5.55;;;5.07;;
15216;SDS011;7711;46.634;14.318;2022-07-29T12:25:20;6.40;;;4.93;;
15216;SDS011;7711;46.634;14.318;2022-07-29T12:27:57;5.45;;;4.90;;
15216;SDS011;7711;46.634;14.318;2022-07-29T12:30:34;5.55;;;5.05;;
15216;SDS011;7711;46.634;14.318;2022-07-29T12:33:11;5.40;;;4.90;;
15216;SDS011;7711;46.634;14.318;2022-07-29T12:35:41;5.15;;;4.75;;
15216;SDS011;7711;46.634;14.318;2022-07-29T12:38:10;5.15;;;4.60;;
15216;SDS011;7711;46.634;14.318;2022-07-29T12:40:38;5.85;;;4.78;;
15216;SDS011;7711;46.634;14.318;2022-07-29T12:43:06;5.10;;;4.70;;
15216;SDS011;7711;46.634;14.318;2022-07-29T12:45:35;6.63;;;5.10;;
15216;SDS011;7711;46.634;14.318;2022-07-29T12:48:03;8.45;;;4.75;;
15216;SDS011;7711;46.634;14.318;2022-07-29T12:50:35;5.28;;;4.75;;
15216;SDS011;7711;46.634;14.318;2022-07-29T12:53:09;5.47;;;4.68;;
15216;SDS011;7711;46.634;14.318;2022-07-29T12:55:39;5.50;;;5.00;;
15216;SDS011;7711;46.634;14.318;2022-07-29T12:58:09;5.00;;;4.57;;
15216;SDS011;7711;46.634;14.318;2022-07-29T13:00:36;5.40;;;4.90;;
15216;SDS011;7711;46.634;14.318;2022-07-29T13:03:03;5.10;;;4.70;;
15216;SDS011;7711;46.634;14.318;2022-07-29T13:05:42;5.30;;;4.80;;
15216;SDS011;7711;46.634;14.318;2022-07-29T13:08:11;5.30;;;4.80;;
15216;SDS011;7711;46.634;14.318;2022-07-29T13:10:39;6.10;;;4.90;;
15216;SDS011;7711;46.634;14.318;2022-07-29T13:13:08;5.43;;;4.80;;
15216;SDS011;7711;46.634;14.318;2022-07-29T13:15:37;5.47;;;4.97;;
15216;SDS011;7711;46.634;14.318;2022-07-29T13:18:25;5.40;;;4.90;;
15216;SDS011;7711;46.634;14.318;2022-07-29T13:20:54;5.22;;;4.72;;
15216;SDS011;7711;46.634;14.318;2022-07-29T13:23:24;5.10;;;4.68;;
15216;SDS011;7711;46.634;14.318;2022-07-29T13:25:54;5.03;;;4.53;;
15216;SDS011;7711;46.634;14.318;2022-07-29T13:28:31;4.72;;;4.28;;
15216;SDS011;7711;46.634;14.318;2022-07-29T13:30:59;5.07;;;4.60;;
15216;SDS011;7711;46.634;14.318;2022-07-29T13:33:26;6.32;;;4.88;;
15216;SDS011;7711;46.634;14.318;2022-07-29T13:35:58;6.13;;;4.50;;
15216;SDS011;7711;46.634;14.318;2022-07-29T13:38:25;5.40;;;4.90;;
15216;SDS011;7711;46.634;14.318;2022-07-29T13:40:53;4.85;;;4.40;;
15216;SDS011;7711;46.634;14.318;2022-07-29T13:43:23;4.78;;;4.25;;
15216;SDS011;7711;46.634;14.318;2022-07-29T13:45:50;6.25;;;4.40;;
15216;SDS011;7711;46.634;14.318;2022-07-29T13:48:18;5.63;;;4.88;;
15216;SDS011;7711;46.634;14.318;2022-07-29T13:50:45;4.68;;;4.07;;
15216;SDS011;7711;46.634;14.318;2022-07-29T13:53:16;5.25;;;4.00;;
15216;SDS011;7711;46.634;14.318;2022-07-29T13:55:43;4.97;;;4.47;;
15216;SDS011;7711;46.634;14.318;2022-07-29T13:58:12;4.97;;;4.47;;
15216;SDS011;7711;46.634;14.318;2022-07-29T14:00:39;4.80;;;4.30;;
15216;SDS011;7711;46.634;14.318;2022-07-29T14:03:09;5.25;;;4.75;;
15216;SDS011;7711;46.634;14.318;2022-07-29T14:05:36;4.80;;;4.40;;
15216;SDS011;7711;46.634;14.318;2022-07-29T14:08:03;7.10;;;4.38;;
15216;SDS011;7711;46.634;14.318;2022-07-29T14:10:32;4.68;;;4.28;;
15216;SDS011;7711;46.634;14.318;2022-07-29T14:12:59;5.05;;;4.50;;
15216;SDS011;7711;46.634;14.318;2022-07-29T14:15:31;4.72;;;4.30;;
15216;SDS011;7711;46.634;14.318;2022-07-29T14:18:01;5.82;;;4.25;;
15216;SDS011;7711;46.634;14.318;2022-07-29T14:20:30;4.90;;;4.38;;
15216;SDS011;7711;46.634;14.318;2022-07-29T14:23:00;5.30;;;4.55;;
15216;SDS011;7711;46.634;14.318;2022-07-29T14:25:27;5.28;;;4.35;;
15216;SDS011;7711;46.634;14.318;2022-07-29T14:27:58;5.00;;;4.60;;
15216;SDS011;7711;46.634;14.318;2022-07-29T14:30:25;4.75;;;4.30;;
15216;SDS011;7711;46.634;14.318;2022-07-29T14:32:52;5.13;;;4.05;;
15216;SDS011;7711;46.634;14.318;2022-07-29T14:35:19;5.05;;;4.55;;
15216;SDS011;7711;46.634;14.318;2022-07-29T14:37:47;6.70;;;4.82;;
15216;SDS011;7711;46.634;14.318;2022-07-29T14:40:14;6.53;;;4.50;;
15216;SDS011;7711;46.634;14.318;2022-07-29T14:42:41;4.78;;;4.40;;
15216;SDS011;7711;46.634;14.318;2022-07-29T14:45:10;4.68;;;4.28;;
15216;SDS011;7711;46.634;14.318;2022-07-29T14:47:37;5.32;;;4.40;;
15216;SDS011;7711;46.634;14.318;2022-07-29T14:50:05;4.55;;;4.10;;
15216;SDS011;7711;46.634;14.318;2022-07-29T14:52:34;4.90;;;4.50;;
15216;SDS011;7711;46.634;14.318;2022-07-29T14:55:04;4.95;;;4.47;;
15216;SDS011;7711;46.634;14.318;2022-07-29T14:57:31;4.65;;;4.22;;
15216;SDS011;7711;46.634;14.318;2022-07-29T14:59:58;5.03;;;4.63;;
15216;SDS011;7711;46.634;14.318;2022-07-29T15:02:31;4.65;;;4.10;;
15216;SDS011;7711;46.634;14.318;2022-07-29T15:05:00;5.40;;;4.38;;
15216;SDS011;7711;46.634;14.318;2022-07-29T15:07:27;5.00;;;4.50;;
15216;SDS011;7711;46.634;14.318;2022-07-29T15:09:56;4.78;;;4.38;;
15216;SDS011;7711;46.634;14.318;2022-07-29T15:12:23;4.65;;;4.20;;
15216;SDS011;7711;46.634;14.318;2022-07-29T15:14:52;4.72;;;4.32;;
15216;SDS011;7711;46.634;14.318;2022-07-29T15:17:21;5.15;;;4.53;;